Terminal Aerodrome Forecast
Issued by NWS Portland, OR

Home | Current Version | Previous Version | Text Only | Print | Product List | Glossary On
Versions: 1 2 3 4 5 6 7 8 9 10 11 12 13 14 15 16 17 18 19 20 21 22 23 24 25 26 27
000
FTUS46 KPQR 200258 AAA
TAFPDX
TAF AMD
KPDX 200258Z 2003/2024 18010KT P6SM -RA OVC050
     FM200500 19013G25KT 5SM RA BKN025 OVC045
     FM200900 19015G25KT 6SM -RA BR BKN015 OVC025
     FM201200 19010KT P6SM -RA SCT008 BKN015 OVC025
     FM201600 18007KT P6SM VCSH SCT008 BKN015 OVC025
     FM201900 20006KT P6SM SCT020 BKN035 OVC050=

USA.gov is the U.S. government's official web portal to all federal, state and local government web resources and services.